sensor_id;sensor_type;location;lat;lon;timestamp;temperature;humidity
1592;DHT22;789;51.612;7.510;2022-07-12T00:01:23;18.90;1.00
1592;DHT22;789;51.612;7.510;2022-07-12T00:03:51;18.80;1.00
1592;DHT22;789;51.612;7.510;2022-07-12T00:06:18;18.80;1.00
1592;DHT22;789;51.612;7.510;2022-07-12T00:08:45;18.80;1.00
1592;DHT22;789;51.612;7.510;2022-07-12T00:11:11;18.80;1.00
1592;DHT22;789;51.612;7.510;2022-07-12T00:13:38;18.80;1.00
1592;DHT22;789;51.612;7.510;2022-07-12T00:16:05;18.70;1.00
1592;DHT22;789;51.612;7.510;2022-07-12T00:18:32;18.70;1.00
1592;DHT22;789;51.612;7.510;2022-07-12T00:21:00;18.70;1.00
1592;DHT22;789;51.612;7.510;2022-07-12T00:23:27;18.70;1.00
1592;DHT22;789;51.612;7.510;2022-07-12T00:25:54;18.60;1.00
1592;DHT22;789;51.612;7.510;2022-07-12T00:28:21;18.60;1.00
1592;DHT22;789;51.612;7.510;2022-07-12T00:30:47;18.60;1.00
1592;DHT22;789;51.612;7.510;2022-07-12T00:33:14;18.60;1.00
1592;DHT22;789;51.612;7.510;2022-07-12T00:35:41;18.60;1.00
1592;DHT22;789;51.612;7.510;2022-07-12T00:38:09;18.50;1.00
1592;DHT22;789;51.612;7.510;2022-07-12T00:40:35;18.50;1.00
1592;DHT22;789;51.612;7.510;2022-07-12T00:43:02;18.50;1.00
1592;DHT22;789;51.612;7.510;2022-07-12T00:45:29;18.40;1.00
1592;DHT22;789;51.612;7.510;2022-07-12T00:47:56;18.40;1.00
1592;DHT22;789;51.612;7.510;2022-07-12T00:50:23;18.30;1.00
1592;DHT22;789;51.612;7.510;2022-07-12T00:52:52;18.20;1.00
1592;DHT22;789;51.612;7.510;2022-07-12T00:55:22;18.20;1.00
1592;DHT22;789;51.612;7.510;2022-07-12T00:57:49;18.10;1.00
1592;DHT22;789;51.612;7.510;2022-07-12T01:00:18;18.10;1.00
1592;DHT22;789;51.612;7.510;2022-07-12T01:02:46;18.00;1.00
1592;DHT22;789;51.612;7.510;2022-07-12T01:05:13;18.10;1.00
1592;DHT22;789;51.612;7.510;2022-07-12T01:07:40;18.00;1.00
1592;DHT22;789;51.612;7.510;2022-07-12T01:10:08;18.00;1.00
1592;DHT22;789;51.612;7.510;2022-07-12T01:12:36;17.90;1.00
1592;DHT22;789;51.612;7.510;2022-07-12T01:15:05;17.90;1.00
1592;DHT22;789;51.612;7.510;2022-07-12T01:17:32;17.90;1.00
1592;DHT22;789;51.612;7.510;2022-07-12T01:19:59;17.80;1.00
1592;DHT22;789;51.612;7.510;2022-07-12T01:22:30;17.80;1.00
1592;DHT22;789;51.612;7.510;2022-07-12T01:24:59;17.70;1.00
1592;DHT22;789;51.612;7.510;2022-07-12T01:27:26;17.70;1.00
1592;DHT22;789;51.612;7.510;2022-07-12T01:29:54;17.70;1.00
1592;DHT22;789;51.612;7.510;2022-07-12T01:32:21;17.70;1.00
1592;DHT22;789;51.612;7.510;2022-07-12T01:34:52;17.70;1.00
1592;DHT22;789;51.612;7.510;2022-07-12T01:37:19;17.70;1.00
1592;DHT22;789;51.612;7.510;2022-07-12T01:39:48;17.70;1.00
1592;DHT22;789;51.612;7.510;2022-07-12T01:42:16;17.60;1.00
1592;DHT22;789;51.612;7.510;2022-07-12T01:44:43;17.60;1.00
1592;DHT22;789;51.612;7.510;2022-07-12T01:47:10;17.60;1.00
1592;DHT22;789;51.612;7.510;2022-07-12T01:49:37;17.60;1.00
1592;DHT22;789;51.612;7.510;2022-07-12T01:52:04;17.50;1.00
1592;DHT22;789;51.612;7.510;2022-07-12T01:54:33;17.50;1.00
1592;DHT22;789;51.612;7.510;2022-07-12T01:57:00;17.50;1.00
1592;DHT22;789;51.612;7.510;2022-07-12T01:59:29;17.50;1.00
1592;DHT22;789;51.612;7.510;2022-07-12T02:01:56;17.50;1.00
1592;DHT22;789;51.612;7.510;2022-07-12T02:04:24;17.50;1.00
1592;DHT22;789;51.612;7.510;2022-07-12T02:06:51;17.50;1.00
1592;DHT22;789;51.612;7.510;2022-07-12T02:09:18;17.50;1.00
1592;DHT22;789;51.612;7.510;2022-07-12T02:11:45;17.40;1.00
1592;DHT22;789;51.612;7.510;2022-07-12T02:14:12;17.40;1.00
1592;DHT22;789;51.612;7.510;2022-07-12T02:16:41;17.40;1.00
1592;DHT22;789;51.612;7.510;2022-07-12T02:19:08;17.40;1.00
1592;DHT22;789;51.612;7.510;2022-07-12T02:21:35;17.30;1.00
1592;DHT22;789;51.612;7.510;2022-07-12T02:24:03;17.30;1.00
1592;DHT22;789;51.612;7.510;2022-07-12T02:26:32;17.30;1.00
1592;DHT22;789;51.612;7.510;2022-07-12T02:29:00;17.20;1.00
1592;DHT22;789;51.612;7.510;2022-07-12T02:31:27;17.20;1.00
1592;DHT22;789;51.612;7.510;2022-07-12T02:33:55;17.10;1.00
1592;DHT22;789;51.612;7.510;2022-07-12T02:36:21;17.10;1.00
1592;DHT22;789;51.612;7.510;2022-07-12T02:38:48;17.10;1.00
1592;DHT22;789;51.612;7.510;2022-07-12T02:41:15;17.00;1.00
1592;DHT22;789;51.612;7.510;2022-07-12T02:43:42;17.00;1.00
1592;DHT22;789;51.612;7.510;2022-07-12T02:46:09;17.00;1.00
1592;DHT22;789;51.612;7.510;2022-07-12T02:48:38;16.90;1.00
1592;DHT22;789;51.612;7.510;2022-07-12T02:51:06;16.90;1.00
1592;DHT22;789;51.612;7.510;2022-07-12T02:53:34;16.90;1.00
1592;DHT22;789;51.612;7.510;2022-07-12T02:56:01;16.80;1.00
1592;DHT22;789;51.612;7.510;2022-07-12T02:58:28;16.80;1.00
1592;DHT22;789;51.612;7.510;2022-07-12T03:00:55;16.80;1.00
1592;DHT22;789;51.612;7.510;2022-07-12T03:03:21;16.70;1.00
1592;DHT22;789;51.612;7.510;2022-07-12T03:05:48;16.70;1.00
1592;DHT22;789;51.612;7.510;2022-07-12T03:08:16;16.70;1.00
1592;DHT22;789;51.612;7.510;2022-07-12T03:10:43;16.70;1.00
1592;DHT22;789;51.612;7.510;2022-07-12T03:13:10;16.70;1.00
1592;DHT22;789;51.612;7.510;2022-07-12T03:15:36;16.70;1.00
1592;DHT22;789;51.612;7.510;2022-07-12T03:18:04;16.70;1.00
1592;DHT22;789;51.612;7.510;2022-07-12T03:20:30;16.70;1.00
1592;DHT22;789;51.612;7.510;2022-07-12T03:22:57;16.70;1.00
1592;DHT22;789;51.612;7.510;2022-07-12T03:25:25;16.70;1.00
1592;DHT22;789;51.612;7.510;2022-07-12T03:27:52;16.70;1.00
1592;DHT22;789;51.612;7.510;2022-07-12T03:30:20;16.70;1.00
1592;DHT22;789;51.612;7.510;2022-07-12T03:32:46;16.70;1.00
1592;DHT22;789;51.612;7.510;2022-07-12T03:35:13;16.70;1.00
1592;DHT22;789;51.612;7.510;2022-07-12T03:37:44;16.70;1.00
1592;DHT22;789;51.612;7.510;2022-07-12T03:40:12;16.70;1.00
1592;DHT22;789;51.612;7.510;2022-07-12T03:42:41;16.70;1.00
1592;DHT22;789;51.612;7.510;2022-07-12T03:45:09;16.70;1.00
1592;DHT22;789;51.612;7.510;2022-07-12T03:47:35;16.70;1.00
1592;DHT22;789;51.612;7.510;2022-07-12T03:50:03;16.70;1.00
1592;DHT22;789;51.612;7.510;2022-07-12T03:52:31;16.80;1.00
1592;DHT22;789;51.612;7.510;2022-07-12T03:54:58;16.80;1.00
1592;DHT22;789;51.612;7.510;2022-07-12T03:57:25;16.80;1.00
1592;DHT22;789;51.612;7.510;2022-07-12T03:59:54;16.70;1.00
1592;DHT22;789;51.612;7.510;2022-07-12T04:02:21;16.70;1.00
1592;DHT22;789;51.612;7.510;2022-07-12T04:04:48;16.80;1.00
1592;DHT22;789;51.612;7.510;2022-07-12T04:07:15;16.80;1.00
1592;DHT22;789;51.612;7.510;2022-07-12T04:09:42;16.80;1.00
1592;DHT22;789;51.612;7.510;2022-07-12T04:12:09;16.80;1.00
1592;DHT22;789;51.612;7.510;2022-07-12T04:14:36;16.90;1.00
1592;DHT22;789;51.612;7.510;2022-07-12T04:17:04;16.90;1.00
1592;DHT22;789;51.612;7.510;2022-07-12T04:19:31;16.90;1.00
1592;DHT22;789;51.612;7.510;2022-07-12T04:21:58;17.00;1.00
1592;DHT22;789;51.612;7.510;2022-07-12T04:24:25;17.00;1.00
1592;DHT22;789;51.612;7.510;2022-07-12T04:26:52;16.90;1.00
1592;DHT22;789;51.612;7.510;2022-07-12T04:29:20;17.00;1.00
1592;DHT22;789;51.612;7.510;2022-07-12T04:31:47;17.00;1.00
1592;DHT22;789;51.612;7.510;2022-07-12T04:34:15;17.00;1.00
1592;DHT22;789;51.612;7.510;2022-07-12T04:36:43;17.10;1.00
1592;DHT22;789;51.612;7.510;2022-07-12T04:39:10;17.10;1.00
1592;DHT22;789;51.612;7.510;2022-07-12T04:41:37;17.10;1.00
1592;DHT22;789;51.612;7.510;2022-07-12T04:44:04;17.10;1.00
1592;DHT22;789;51.612;7.510;2022-07-12T04:46:31;17.20;1.00
1592;DHT22;789;51.612;7.510;2022-07-12T04:48:58;17.20;1.00
1592;DHT22;789;51.612;7.510;2022-07-12T04:51:26;17.10;1.00
1592;DHT22;789;51.612;7.510;2022-07-12T04:53:53;17.10;1.00
1592;DHT22;789;51.612;7.510;2022-07-12T04:56:19;17.10;1.00
1592;DHT22;789;51.612;7.510;2022-07-12T04:58:46;17.20;1.00
1592;DHT22;789;51.612;7.510;2022-07-12T05:01:14;17.30;1.00
1592;DHT22;789;51.612;7.510;2022-07-12T05:03:42;17.50;1.00
1592;DHT22;789;51.612;7.510;2022-07-12T05:06:09;17.70;1.00
1592;DHT22;789;51.612;7.510;2022-07-12T05:08:37;17.90;1.00
1592;DHT22;789;51.612;7.510;2022-07-12T05:11:04;18.20;1.00
1592;DHT22;789;51.612;7.510;2022-07-12T05:13:31;18.40;1.00
1592;DHT22;789;51.612;7.510;2022-07-12T05:15:58;18.60;1.00
1592;DHT22;789;51.612;7.510;2022-07-12T05:18:25;18.80;1.00
1592;DHT22;789;51.612;7.510;2022-07-12T05:20:51;19.00;1.00
1592;DHT22;789;51.612;7.510;2022-07-12T05:23:18;19.10;1.00
1592;DHT22;789;51.612;7.510;2022-07-12T05:25:46;19.10;1.00
1592;DHT22;789;51.612;7.510;2022-07-12T05:28:13;19.10;1.00
1592;DHT22;789;51.612;7.510;2022-07-12T05:30:41;19.30;1.00
1592;DHT22;789;51.612;7.510;2022-07-12T05:33:08;19.30;1.00
1592;DHT22;789;51.612;7.510;2022-07-12T05:35:35;19.50;1.00
1592;DHT22;789;51.612;7.510;2022-07-12T05:38:01;19.70;1.00
1592;DHT22;789;51.612;7.510;2022-07-12T05:40:28;19.80;1.00
1592;DHT22;789;51.612;7.510;2022-07-12T05:42:56;19.90;1.00
1592;DHT22;789;51.612;7.510;2022-07-12T05:45:24;20.10;1.00
1592;DHT22;789;51.612;7.510;2022-07-12T05:47:51;20.10;1.00
1592;DHT22;789;51.612;7.510;2022-07-12T05:50:18;20.20;1.00
1592;DHT22;789;51.612;7.510;2022-07-12T05:52:44;20.30;1.00
1592;DHT22;789;51.612;7.510;2022-07-12T05:55:29;20.30;1.00
1592;DHT22;789;51.612;7.510;2022-07-12T05:57:57;20.50;1.00
1592;DHT22;789;51.612;7.510;2022-07-12T06:00:23;20.70;1.00
1592;DHT22;789;51.612;7.510;2022-07-12T06:02:50;20.90;1.00
1592;DHT22;789;51.612;7.510;2022-07-12T06:05:17;21.20;1.00
1592;DHT22;789;51.612;7.510;2022-07-12T06:07:44;21.50;1.00
1592;DHT22;789;51.612;7.510;2022-07-12T06:10:10;21.70;1.00
1592;DHT22;789;51.612;7.510;2022-07-12T06:12:37;22.00;1.00
1592;DHT22;789;51.612;7.510;2022-07-12T06:15:06;22.10;1.00
1592;DHT22;789;51.612;7.510;2022-07-12T06:17:33;22.20;1.00
1592;DHT22;789;51.612;7.510;2022-07-12T06:20:01;22.20;1.00
1592;DHT22;789;51.612;7.510;2022-07-12T06:22:28;22.20;1.00
1592;DHT22;789;51.612;7.510;2022-07-12T06:24:54;22.40;1.00
1592;DHT22;789;51.612;7.510;2022-07-12T06:27:21;22.50;1.00
1592;DHT22;789;51.612;7.510;2022-07-12T06:29:48;22.70;1.00
1592;DHT22;789;51.612;7.510;2022-07-12T06:32:16;22.90;1.00
1592;DHT22;789;51.612;7.510;2022-07-12T06:34:43;23.10;1.00
1592;DHT22;789;51.612;7.510;2022-07-12T06:37:10;23.20;1.00
1592;DHT22;789;51.612;7.510;2022-07-12T06:39:38;23.20;1.00
1592;DHT22;789;51.612;7.510;2022-07-12T06:42:05;23.40;1.00
1592;DHT22;789;51.612;7.510;2022-07-12T06:44:32;23.40;1.00
1592;DHT22;789;51.612;7.510;2022-07-12T06:46:59;23.50;1.00
1592;DHT22;789;51.612;7.510;2022-07-12T06:49:28;23.70;1.00
1592;DHT22;789;51.612;7.510;2022-07-12T06:51:54;23.80;1.00
1592;DHT22;789;51.612;7.510;2022-07-12T06:54:21;23.90;1.00
1592;DHT22;789;51.612;7.510;2022-07-12T06:56:48;24.00;1.00
1592;DHT22;789;51.612;7.510;2022-07-12T06:59:14;24.20;1.00
1592;DHT22;789;51.612;7.510;2022-07-12T07:01:42;24.40;1.00
1592;DHT22;789;51.612;7.510;2022-07-12T07:04:08;24.60;1.00
1592;DHT22;789;51.612;7.510;2022-07-12T07:06:37;24.80;1.00
1592;DHT22;789;51.612;7.510;2022-07-12T07:09:03;25.10;1.00
1592;DHT22;789;51.612;7.510;2022-07-12T07:11:33;25.30;1.00
1592;DHT22;789;51.612;7.510;2022-07-12T07:14:00;25.60;1.00
1592;DHT22;789;51.612;7.510;2022-07-12T07:16:28;25.90;1.00
1592;DHT22;789;51.612;7.510;2022-07-12T07:18:55;26.10;1.00
1592;DHT22;789;51.612;7.510;2022-07-12T07:21:22;26.30;1.00
1592;DHT22;789;51.612;7.510;2022-07-12T07:23:50;26.40;1.00
1592;DHT22;789;51.612;7.510;2022-07-12T07:26:17;26.60;1.00
1592;DHT22;789;51.612;7.510;2022-07-12T07:28:44;26.90;1.00
1592;DHT22;789;51.612;7.510;2022-07-12T07:31:28;27.00;1.00
1592;DHT22;789;51.612;7.510;2022-07-12T07:33:55;27.30;1.00
1592;DHT22;789;51.612;7.510;2022-07-12T07:36:21;27.50;1.00
1592;DHT22;789;51.612;7.510;2022-07-12T07:38:49;27.80;1.00
1592;DHT22;789;51.612;7.510;2022-07-12T07:41:16;28.10;1.00
1592;DHT22;789;51.612;7.510;2022-07-12T07:43:43;28.40;1.00
1592;DHT22;789;51.612;7.510;2022-07-12T07:46:10;28.70;1.00
1592;DHT22;789;51.612;7.510;2022-07-12T07:48:36;29.20;1.00
1592;DHT22;789;51.612;7.510;2022-07-12T07:51:03;29.70;1.00
1592;DHT22;789;51.612;7.510;2022-07-12T07:53:30;30.10;1.00
1592;DHT22;789;51.612;7.510;2022-07-12T07:55:58;30.40;1.00
1592;DHT22;789;51.612;7.510;2022-07-12T07:58:25;30.70;1.00
1592;DHT22;789;51.612;7.510;2022-07-12T08:00:52;31.00;1.00
1592;DHT22;789;51.612;7.510;2022-07-12T08:03:19;31.40;1.00
1592;DHT22;789;51.612;7.510;2022-07-12T08:05:46;32.10;1.00
1592;DHT22;789;51.612;7.510;2022-07-12T08:08:13;32.60;1.00
1592;DHT22;789;51.612;7.510;2022-07-12T08:10:40;33.10;1.00
1592;DHT22;789;51.612;7.510;2022-07-12T08:13:08;33.40;1.00
1592;DHT22;789;51.612;7.510;2022-07-12T08:15:35;33.80;1.00
1592;DHT22;789;51.612;7.510;2022-07-12T08:18:02;34.20;1.00
1592;DHT22;789;51.612;7.510;2022-07-12T08:20:30;34.60;1.00
1592;DHT22;789;51.612;7.510;2022-07-12T08:22:57;34.90;1.00
1592;DHT22;789;51.612;7.510;2022-07-12T08:25:27;34.70;1.00
1592;DHT22;789;51.612;7.510;2022-07-12T08:27:54;34.90;1.00
1592;DHT22;789;51.612;7.510;2022-07-12T08:30:22;35.20;1.00
1592;DHT22;789;51.612;7.510;2022-07-12T08:32:49;35.60;1.00
1592;DHT22;789;51.612;7.510;2022-07-12T08:35:15;36.00;1.00
1592;DHT22;789;51.612;7.510;2022-07-12T08:37:42;36.40;1.00
1592;DHT22;789;51.612;7.510;2022-07-12T08:40:09;36.90;1.00
1592;DHT22;789;51.612;7.510;2022-07-12T08:42:40;37.10;1.00
1592;DHT22;789;51.612;7.510;2022-07-12T08:45:08;37.60;1.00
1592;DHT22;789;51.612;7.510;2022-07-12T08:47:36;38.00;1.00
1592;DHT22;789;51.612;7.510;2022-07-12T08:50:11;38.40;1.00
1592;DHT22;789;51.612;7.510;2022-07-12T08:52:39;38.90;1.00
1592;DHT22;789;51.612;7.510;2022-07-12T08:55:22;39.50;1.00
1592;DHT22;789;51.612;7.510;2022-07-12T08:57:51;40.10;1.00
1592;DHT22;789;51.612;7.510;2022-07-12T09:00:19;40.40;1.00
1592;DHT22;789;51.612;7.510;2022-07-12T09:02:48;40.50;1.00
1592;DHT22;789;51.612;7.510;2022-07-12T09:05:16;39.80;1.00
1592;DHT22;789;51.612;7.510;2022-07-12T09:07:44;40.00;1.00
1592;DHT22;789;51.612;7.510;2022-07-12T09:10:12;40.70;1.00
1592;DHT22;789;51.612;7.510;2022-07-12T09:12:42;41.50;1.00
1592;DHT22;789;51.612;7.510;2022-07-12T09:15:11;41.90;1.00
1592;DHT22;789;51.612;7.510;2022-07-12T09:17:57;42.00;1.00
1592;DHT22;789;51.612;7.510;2022-07-12T09:20:25;41.60;1.00
1592;DHT22;789;51.612;7.510;2022-07-12T09:22:53;41.60;1.00
1592;DHT22;789;51.612;7.510;2022-07-12T09:25:24;41.90;1.00
1592;DHT22;789;51.612;7.510;2022-07-12T09:27:53;42.60;1.00
1592;DHT22;789;51.612;7.510;2022-07-12T09:30:20;43.60;1.00
1592;DHT22;789;51.612;7.510;2022-07-12T09:32:53;43.90;1.00
1592;DHT22;789;51.612;7.510;2022-07-12T09:35:39;44.40;1.00
1592;DHT22;789;51.612;7.510;2022-07-12T09:41:23;45.00;1.00
1592;DHT22;789;51.612;7.510;2022-07-12T09:43:50;45.60;1.00
1592;DHT22;789;51.612;7.510;2022-07-12T09:46:17;46.10;1.00
1592;DHT22;789;51.612;7.510;2022-07-12T09:48:44;46.30;1.00
1592;DHT22;789;51.612;7.510;2022-07-12T09:51:15;46.50;1.00
1592;DHT22;789;51.612;7.510;2022-07-12T09:53:44;46.50;1.00
1592;DHT22;789;51.612;7.510;2022-07-12T09:56:12;46.70;1.00
1592;DHT22;789;51.612;7.510;2022-07-12T09:58:40;46.90;1.00
1592;DHT22;789;51.612;7.510;2022-07-12T10:01:07;47.30;1.00
1592;DHT22;789;51.612;7.510;2022-07-12T10:03:35;47.70;1.00
1592;DHT22;789;51.612;7.510;2022-07-12T10:06:03;47.80;1.00
1592;DHT22;789;51.612;7.510;2022-07-12T10:08:32;47.50;1.00
1592;DHT22;789;51.612;7.510;2022-07-12T10:10:59;47.80;1.00
1592;DHT22;789;51.612;7.510;2022-07-12T10:13:26;48.30;1.00
1592;DHT22;789;51.612;7.510;2022-07-12T10:16:00;48.40;1.00
1592;DHT22;789;51.612;7.510;2022-07-12T10:18:30;48.00;1.00
1592;DHT22;789;51.612;7.510;2022-07-12T10:20:57;48.20;1.00
1592;DHT22;789;51.612;7.510;2022-07-12T10:23:36;48.60;1.00
1592;DHT22;789;51.612;7.510;2022-07-12T10:26:23;48.90;1.00
1592;DHT22;789;51.612;7.510;2022-07-12T10:29:02;49.00;1.00
1592;DHT22;789;51.612;7.510;2022-07-12T10:31:33;48.60;1.00
1592;DHT22;789;51.612;7.510;2022-07-12T10:34:12;48.60;1.00
1592;DHT22;789;51.612;7.510;2022-07-12T10:37:07;48.60;1.00
1592;DHT22;789;51.612;7.510;2022-07-12T10:39:36;48.60;1.00
1592;DHT22;789;51.612;7.510;2022-07-12T10:42:12;49.00;1.00
1592;DHT22;789;51.612;7.510;2022-07-12T10:44:41;48.90;1.00
1592;DHT22;789;51.612;7.510;2022-07-12T10:47:11;48.80;1.00
1592;DHT22;789;51.612;7.510;2022-07-12T10:49:47;48.90;1.00
1592;DHT22;789;51.612;7.510;2022-07-12T10:52:23;49.20;1.00
1592;DHT22;789;51.612;7.510;2022-07-12T10:55:19;49.00;1.00
1592;DHT22;789;51.612;7.510;2022-07-12T10:57:48;48.60;1.00
1592;DHT22;789;51.612;7.510;2022-07-12T11:00:17;48.20;1.00
1592;DHT22;789;51.612;7.510;2022-07-12T11:02:45;47.80;1.00
1592;DHT22;789;51.612;7.510;2022-07-12T11:05:12;47.10;1.00
1592;DHT22;789;51.612;7.510;2022-07-12T11:07:39;46.70;1.00
1592;DHT22;789;51.612;7.510;2022-07-12T11:10:06;46.10;1.00
1592;DHT22;789;51.612;7.510;2022-07-12T11:12:35;45.10;1.00
1592;DHT22;789;51.612;7.510;2022-07-12T11:15:03;44.10;1.00
1592;DHT22;789;51.612;7.510;2022-07-12T11:17:32;43.20;1.00
1592;DHT22;789;51.612;7.510;2022-07-12T11:20:07;42.80;1.00
1592;DHT22;789;51.612;7.510;2022-07-12T11:22:36;43.30;1.00
1592;DHT22;789;51.612;7.510;2022-07-12T11:25:04;44.30;1.00
1592;DHT22;789;51.612;7.510;2022-07-12T11:27:31;44.70;1.00
1592;DHT22;789;51.612;7.510;2022-07-12T11:30:00;44.70;1.00
1592;DHT22;789;51.612;7.510;2022-07-12T11:32:37;44.70;1.00
1592;DHT22;789;51.612;7.510;2022-07-12T11:35:16;44.90;1.00
1592;DHT22;789;51.612;7.510;2022-07-12T11:37:54;45.00;1.00
1592;DHT22;789;51.612;7.510;2022-07-12T11:40:22;45.20;1.00
1592;DHT22;789;51.612;7.510;2022-07-12T11:42:56;44.90;1.00
1592;DHT22;789;51.612;7.510;2022-07-12T11:45:26;44.20;1.00
1592;DHT22;789;51.612;7.510;2022-07-12T11:47:53;43.30;1.00
1592;DHT22;789;51.612;7.510;2022-07-12T11:50:20;42.00;1.00
1592;DHT22;789;51.612;7.510;2022-07-12T11:52:47;40.80;1.00
1592;DHT22;789;51.612;7.510;2022-07-12T11:55:14;39.50;1.00
1592;DHT22;789;51.612;7.510;2022-07-12T11:57:41;38.40;1.00
1592;DHT22;789;51.612;7.510;2022-07-12T12:00:15;37.50;1.00
1592;DHT22;789;51.612;7.510;2022-07-12T12:02:44;36.80;1.00
1592;DHT22;789;51.612;7.510;2022-07-12T12:05:14;36.20;1.00
1592;DHT22;789;51.612;7.510;2022-07-12T12:07:42;35.80;1.00
1592;DHT22;789;51.612;7.510;2022-07-12T12:10:11;35.60;1.00
1592;DHT22;789;51.612;7.510;2022-07-12T12:12:41;35.40;1.00
1592;DHT22;789;51.612;7.510;2022-07-12T12:15:10;35.10;1.00
1592;DHT22;789;51.612;7.510;2022-07-12T12:17:44;34.80;1.00
1592;DHT22;789;51.612;7.510;2022-07-12T12:20:16;34.30;1.00
1592;DHT22;789;51.612;7.510;2022-07-12T12:22:44;33.70;1.00
1592;DHT22;789;51.612;7.510;2022-07-12T12:25:15;33.20;1.00
1592;DHT22;789;51.612;7.510;2022-07-12T12:27:46;32.90;1.00
1592;DHT22;789;51.612;7.510;2022-07-12T12:30:15;32.60;1.00
1592;DHT22;789;51.612;7.510;2022-07-12T12:32:48;32.30;1.00
1592;DHT22;789;51.612;7.510;2022-07-12T12:35:16;32.00;1.00
1592;DHT22;789;51.612;7.510;2022-07-12T12:37:54;31.70;1.00
1592;DHT22;789;51.612;7.510;2022-07-12T12:40:22;31.40;1.00
1592;DHT22;789;51.612;7.510;2022-07-12T12:42:49;31.30;1.00
1592;DHT22;789;51.612;7.510;2022-07-12T12:45:24;31.40;1.00
1592;DHT22;789;51.612;7.510;2022-07-12T12:47:58;31.40;1.00
1592;DHT22;789;51.612;7.510;2022-07-12T12:50:42;31.50;1.00
1592;DHT22;789;51.612;7.510;2022-07-12T12:53:17;31.60;1.00
1592;DHT22;789;51.612;7.510;2022-07-12T12:55:46;31.60;1.00
1592;DHT22;789;51.612;7.510;2022-07-12T12:58:14;31.60;1.00
1592;DHT22;789;51.612;7.510;2022-07-12T13:00:43;31.50;1.00
1592;DHT22;789;51.612;7.510;2022-07-12T13:03:15;31.50;1.00
1592;DHT22;789;51.612;7.510;2022-07-12T13:05:43;31.60;1.00
1592;DHT22;789;51.612;7.510;2022-07-12T13:08:11;31.60;1.00
1592;DHT22;789;51.612;7.510;2022-07-12T13:10:39;31.60;1.00
1592;DHT22;789;51.612;7.510;2022-07-12T13:13:08;31.60;1.00
1592;DHT22;789;51.612;7.510;2022-07-12T13:15:36;31.60;1.00
1592;DHT22;789;51.612;7.510;2022-07-12T13:18:03;31.50;1.00
1592;DHT22;789;51.612;7.510;2022-07-12T13:20:32;31.50;1.00
1592;DHT22;789;51.612;7.510;2022-07-12T13:22:59;31.60;1.00
1592;DHT22;789;51.612;7.510;2022-07-12T13:25:26;31.50;1.00
1592;DHT22;789;51.612;7.510;2022-07-12T13:27:56;31.40;1.00
1592;DHT22;789;51.612;7.510;2022-07-12T13:30:23;31.40;1.00
1592;DHT22;789;51.612;7.510;2022-07-12T13:32:50;31.30;1.00
1592;DHT22;789;51.612;7.510;2022-07-12T13:35:17;31.20;1.00
1592;DHT22;789;51.612;7.510;2022-07-12T13:37:47;31.30;1.00
1592;DHT22;789;51.612;7.510;2022-07-12T13:40:14;31.20;1.00
1592;DHT22;789;51.612;7.510;2022-07-12T13:42:43;31.20;1.00
1592;DHT22;789;51.612;7.510;2022-07-12T13:45:12;31.20;1.00
1592;DHT22;789;51.612;7.510;2022-07-12T13:47:40;31.20;1.00
1592;DHT22;789;51.612;7.510;2022-07-12T13:50:08;31.20;1.00
1592;DHT22;789;51.612;7.510;2022-07-12T13:52:35;31.30;1.00
1592;DHT22;789;51.612;7.510;2022-07-12T13:55:07;31.20;1.00
1592;DHT22;789;51.612;7.510;2022-07-12T13:57:45;31.30;1.00
1592;DHT22;789;51.612;7.510;2022-07-12T14:00:14;31.30;1.00
1592;DHT22;789;51.612;7.510;2022-07-12T14:02:43;31.30;1.00
1592;DHT22;789;51.612;7.510;2022-07-12T14:05:12;31.30;1.00
1592;DHT22;789;51.612;7.510;2022-07-12T14:07:43;31.30;1.00
1592;DHT22;789;51.612;7.510;2022-07-12T14:10:12;31.40;1.00
1592;DHT22;789;51.612;7.510;2022-07-12T14:12:39;31.50;1.00
1592;DHT22;789;51.612;7.510;2022-07-12T14:15:07;31.50;1.00
1592;DHT22;789;51.612;7.510;2022-07-12T14:17:46;31.60;1.00
1592;DHT22;789;51.612;7.510;2022-07-12T14:20:15;31.60;1.00
1592;DHT22;789;51.612;7.510;2022-07-12T14:22:42;31.80;1.00
1592;DHT22;789;51.612;7.510;2022-07-12T14:25:10;31.90;1.00
1592;DHT22;789;51.612;7.510;2022-07-12T14:27:38;31.90;1.00
1592;DHT22;789;51.612;7.510;2022-07-12T14:30:07;32.00;1.00
1592;DHT22;789;51.612;7.510;2022-07-12T14:32:34;32.10;1.00
1592;DHT22;789;51.612;7.510;2022-07-12T14:35:01;32.20;1.00
1592;DHT22;789;51.612;7.510;2022-07-12T14:37:28;32.40;1.00
1592;DHT22;789;51.612;7.510;2022-07-12T14:39:55;32.50;1.00
1592;DHT22;789;51.612;7.510;2022-07-12T14:42:23;32.50;1.00
1592;DHT22;789;51.612;7.510;2022-07-12T14:44:50;32.60;1.00
1592;DHT22;789;51.612;7.510;2022-07-12T14:47:17;32.60;1.00
1592;DHT22;789;51.612;7.510;2022-07-12T14:49:44;32.60;1.00
1592;DHT22;789;51.612;7.510;2022-07-12T14:52:11;32.50;1.00
1592;DHT22;789;51.612;7.510;2022-07-12T14:54:37;32.20;1.00
1592;DHT22;789;51.612;7.510;2022-07-12T14:57:04;32.00;1.00
1592;DHT22;789;51.612;7.510;2022-07-12T14:59:32;31.90;1.00
1592;DHT22;789;51.612;7.510;2022-07-12T15:01:59;31.80;1.00
1592;DHT22;789;51.612;7.510;2022-07-12T15:04:26;31.70;1.00
1592;DHT22;789;51.612;7.510;2022-07-12T15:06:53;31.60;1.00
1592;DHT22;789;51.612;7.510;2022-07-12T15:09:20;31.60;1.00
1592;DHT22;789;51.612;7.510;2022-07-12T15:11:46;31.60;1.00
1592;DHT22;789;51.612;7.510;2022-07-12T15:14:13;31.40;1.00
1592;DHT22;789;51.612;7.510;2022-07-12T15:16:41;31.40;1.00
1592;DHT22;789;51.612;7.510;2022-07-12T15:19:08;31.50;1.00
1592;DHT22;789;51.612;7.510;2022-07-12T15:21:35;31.60;1.00
1592;DHT22;789;51.612;7.510;2022-07-12T15:24:02;31.70;1.00
1592;DHT22;789;51.612;7.510;2022-07-12T15:26:29;31.80;1.00
1592;DHT22;789;51.612;7.510;2022-07-12T15:28:58;31.90;1.00
1592;DHT22;789;51.612;7.510;2022-07-12T15:31:27;32.00;1.00
1592;DHT22;789;51.612;7.510;2022-07-12T15:33:55;32.10;1.00
1592;DHT22;789;51.612;7.510;2022-07-12T15:36:22;32.00;1.00
1592;DHT22;789;51.612;7.510;2022-07-12T15:38:49;32.00;1.00
1592;DHT22;789;51.612;7.510;2022-07-12T15:41:15;32.10;1.00
1592;DHT22;789;51.612;7.510;2022-07-12T15:43:42;32.10;1.00
1592;DHT22;789;51.612;7.510;2022-07-12T15:46:10;32.10;1.00
1592;DHT22;789;51.612;7.510;2022-07-12T15:48:38;32.20;1.00
1592;DHT22;789;51.612;7.510;2022-07-12T15:51:07;32.10;1.00
1592;DHT22;789;51.612;7.510;2022-07-12T15:53:36;32.10;1.00
1592;DHT22;789;51.612;7.510;2022-07-12T15:56:03;32.00;1.00
1592;DHT22;789;51.612;7.510;2022-07-12T15:58:32;32.00;1.00
1592;DHT22;789;51.612;7.510;2022-07-12T16:01:00;31.90;1.00
1592;DHT22;789;51.612;7.510;2022-07-12T16:03:27;31.90;1.00
1592;DHT22;789;51.612;7.510;2022-07-12T16:05:55;31.90;1.00
1592;DHT22;789;51.612;7.510;2022-07-12T16:08:27;31.70;1.00
1592;DHT22;789;51.612;7.510;2022-07-12T16:10:54;31.60;1.00
1592;DHT22;789;51.612;7.510;2022-07-12T16:13:21;31.60;1.00
1592;DHT22;789;51.612;7.510;2022-07-12T16:15:48;31.60;1.00
1592;DHT22;789;51.612;7.510;2022-07-12T16:18:14;31.60;1.00
1592;DHT22;789;51.612;7.510;2022-07-12T16:20:41;31.70;1.00
1592;DHT22;789;51.612;7.510;2022-07-12T16:23:08;31.70;1.00
1592;DHT22;789;51.612;7.510;2022-07-12T16:25:37;31.70;1.00
1592;DHT22;789;51.612;7.510;2022-07-12T16:28:04;31.70;1.00
1592;DHT22;789;51.612;7.510;2022-07-12T16:30:32;31.70;1.00
1592;DHT22;789;51.612;7.510;2022-07-12T16:32:59;31.60;1.00
1592;DHT22;789;51.612;7.510;2022-07-12T16:35:26;31.50;1.00
1592;DHT22;789;51.612;7.510;2022-07-12T16:37:53;31.40;1.00
1592;DHT22;789;51.612;7.510;2022-07-12T16:40:20;31.40;1.00
1592;DHT22;789;51.612;7.510;2022-07-12T16:42:48;31.40;1.00
1592;DHT22;789;51.612;7.510;2022-07-12T16:45:15;31.30;1.00